RYR85WA LPFR-EDDN
Flight info
| Callsign | RYR85WA |
|---|---|
| Flight time | 2h 58m |
| Altitude | 30000 |
| Route | TUPI1V TUPIX Y135 NAPES N747 PIMUR M30 HIJ N10 VTB N871 TOPTU DCT TOU DCT GAI DCT MEN DCT NINUN DCT LATAM DCT ETREK DCT LTP DCT SOPLO DCT OMASI DCT KINNI DCT SOSAL DCT KORED DCT BERSU DCT DITON DCT LOKTA DCT TEDGO N869 LETKU LETKU1V |
| Aircraft | B738/M-SDE3FGILRWY/SB1 |
Departure
| Time | 2026-05-04 13:01 |
|---|---|
| Airport | Faro - Gago Coutinho International Airport (LPFR) |
Arrival
| Time | 2026-05-04 16:00 |
|---|---|
| Airport | Nuremberg Airport (EDDN) |
| Time | Latitude | Longitude | Altitude | Speed | Heading |
|---|---|---|---|---|---|
| 2026-05-04 12:25 | 37.01832 | -7.96337 | 27 ft | 0 kts | 10° |
| 2026-05-04 12:48 | 37.01820 | -7.96339 | 27 ft | 4 kts | 13° |
| 2026-05-04 12:48 | 37.01794 | -7.96350 | 27 ft | 4 kts | 27° |
| 2026-05-04 12:49 | 37.01773 | -7.96368 | 27 ft | 4 kts | 54° |
| 2026-05-04 12:49 | 37.01766 | -7.96392 | 27 ft | 1 kts | 100° |
| 2026-05-04 12:49 | 37.01766 | -7.96393 | 27 ft | 3 kts | 100° |
| 2026-05-04 12:53 | 37.01766 | -7.96392 | 27 ft | 1 kts | 100° |
| 2026-05-04 12:53 | 37.01762 | -7.96369 | 27 ft | 6 kts | 101° |
| 2026-05-04 12:53 | 37.01752 | -7.96304 | 27 ft | 9 kts | 101° |
| 2026-05-04 12:54 | 37.01738 | -7.96215 | 27 ft | 13 kts | 101° |
| 2026-05-04 12:54 | 37.01712 | -7.96097 | 27 ft | 14 kts | 131° |
| 2026-05-04 12:54 | 37.01618 | -7.96093 | 27 ft | 14 kts | 190° |
| 2026-05-04 12:54 | 37.01549 | -7.96041 | 26 ft | 14 kts | 103° |
| 2026-05-04 12:55 | 37.01531 | -7.95914 | 26 ft | 15 kts | 100° |
| 2026-05-04 12:55 | 37.01465 | -7.95840 | 26 ft | 7 kts | 186° |
| 2026-05-04 12:55 | 37.01444 | -7.95844 | 26 ft | 0 kts | 189° |
| 2026-05-04 12:59 | 37.01442 | -7.95844 | 28 ft | 1 kts | 189° |
| 2026-05-04 13:00 | 37.01415 | -7.95850 | 26 ft | 7 kts | 189° |
| 2026-05-04 13:00 | 37.01361 | -7.95873 | 28 ft | 9 kts | 220° |
| 2026-05-04 13:00 | 37.01373 | -7.96105 | 26 ft | 66 kts | 280° |
| 2026-05-04 13:00 | 37.01505 | -7.97043 | 29 ft | 150 kts | 279° |
| 2026-05-04 13:01 | 37.01725 | -7.98534 | 548 ft | 187 kts | 279° |
| 2026-05-04 13:01 | 37.01946 | -8.00199 | 1536 ft | 199 kts | 280° |
| 2026-05-04 13:01 | 37.02150 | -8.01928 | 2581 ft | 205 kts | 282° |
| 2026-05-04 13:01 | 37.02418 | -8.03760 | 3160 ft | 225 kts | 284° |
| 2026-05-04 13:02 | 37.02744 | -8.05808 | 3522 ft | 250 kts | 283° |
| 2026-05-04 13:02 | 37.02987 | -8.07986 | 4386 ft | 256 kts | 269° |
| 2026-05-04 13:02 | 37.02453 | -8.10132 | 5286 ft | 265 kts | 240° |
| 2026-05-04 13:02 | 37.01140 | -8.11776 | 6163 ft | 274 kts | 212° |
| 2026-05-04 13:03 | 36.99325 | -8.12528 | 7050 ft | 280 kts | 187° |
| 2026-05-04 13:03 | 36.97374 | -8.12349 | 7970 ft | 283 kts | 171° |
| 2026-05-04 13:03 | 36.95443 | -8.11798 | 8831 ft | 287 kts | 169° |
| 2026-05-04 13:03 | 36.93486 | -8.11200 | 9642 ft | 292 kts | 170° |
| 2026-05-04 13:04 | 36.91497 | -8.10618 | 10422 ft | 297 kts | 171° |
| 2026-05-04 13:04 | 36.89420 | -8.09969 | 10676 ft | 323 kts | 163° |
| 2026-05-04 13:04 | 36.87477 | -8.08369 | 11055 ft | 348 kts | 134° |
| 2026-05-04 13:04 | 36.86273 | -8.05707 | 11698 ft | 360 kts | 106° |
| 2026-05-04 13:05 | 36.85810 | -8.02623 | 12468 ft | 364 kts | 98° |
| 2026-05-04 13:05 | 36.85480 | -7.99461 | 13175 ft | 370 kts | 97° |
| 2026-05-04 13:05 | 36.85158 | -7.96247 | 13854 ft | 377 kts | 97° |
| 2026-05-04 13:05 | 36.84809 | -7.92989 | 14504 ft | 381 kts | 98° |
| 2026-05-04 13:06 | 36.84431 | -7.89700 | 15170 ft | 384 kts | 99° |
| 2026-05-04 13:06 | 36.84031 | -7.86387 | 15844 ft | 388 kts | 99° |
| 2026-05-04 13:06 | 36.83615 | -7.83037 | 16504 ft | 392 kts | 99° |
| 2026-05-04 13:06 | 36.83191 | -7.79653 | 17159 ft | 397 kts | 99° |
| 2026-05-04 13:07 | 36.82762 | -7.76235 | 17802 ft | 401 kts | 99° |
| 2026-05-04 13:07 | 36.82393 | -7.72764 | 18410 ft | 406 kts | 91° |
| 2026-05-04 13:07 | 36.82546 | -7.70436 | 18743 ft | 409 kts | 76° |
| 2026-05-04 13:07 | 36.84059 | -7.66126 | 19515 ft | 406 kts | 50° |
| 2026-05-04 13:08 | 36.85289 | -7.64389 | 19888 ft | 403 kts | 40° |
| 2026-05-04 13:08 | 36.87333 | -7.61973 | 20435 ft | 406 kts | 38° |
| 2026-05-04 13:08 | 36.89429 | -7.59586 | 20965 ft | 410 kts | 38° |
| 2026-05-04 13:08 | 36.91552 | -7.57169 | 21468 ft | 415 kts | 38° |
| 2026-05-04 13:09 | 36.93681 | -7.54717 | 22022 ft | 418 kts | 38° |
| 2026-05-04 13:09 | 36.95816 | -7.52227 | 22542 ft | 422 kts | 38° |
| 2026-05-04 13:09 | 36.97969 | -7.49695 | 23050 ft | 427 kts | 39° |
| 2026-05-04 13:09 | 37.00135 | -7.47137 | 23548 ft | 431 kts | 39° |
| 2026-05-04 13:10 | 37.02323 | -7.44549 | 23973 ft | 434 kts | 39° |
| 2026-05-04 13:10 | 37.04526 | -7.41943 | 24379 ft | 438 kts | 39° |
| 2026-05-04 13:10 | 37.06734 | -7.39288 | 24783 ft | 443 kts | 43° |
| 2026-05-04 13:10 | 37.08509 | -7.36089 | 25135 ft | 455 kts | 62° |
| 2026-05-04 13:11 | 37.09776 | -7.32433 | 25551 ft | 459 kts | 65° |
| 2026-05-04 13:11 | 37.10984 | -7.28719 | 25933 ft | 463 kts | 66° |
| 2026-05-04 13:11 | 37.12201 | -7.24967 | 26317 ft | 466 kts | 66° |
| 2026-05-04 13:11 | 37.13438 | -7.21215 | 26781 ft | 466 kts | 65° |
| 2026-05-04 13:12 | 37.14694 | -7.17472 | 27334 ft | 465 kts | 65° |
| 2026-05-04 13:12 | 37.15957 | -7.13747 | 27846 ft | 464 kts | 65° |
| 2026-05-04 13:12 | 37.17225 | -7.10018 | 28323 ft | 465 kts | 65° |
| 2026-05-04 13:12 | 37.18490 | -7.06289 | 28789 ft | 465 kts | 65° |
| 2026-05-04 13:13 | 37.19700 | -7.02523 | 29265 ft | 466 kts | 70° |
| 2026-05-04 13:13 | 37.20553 | -6.98607 | 29792 ft | 465 kts | 76° |
| 2026-05-04 13:13 | 37.21278 | -6.94647 | 30087 ft | 468 kts | 77° |
| 2026-05-04 13:14 | 37.22704 | -6.86660 | 30057 ft | 467 kts | 77° |
| 2026-05-04 13:14 | 37.24175 | -6.78775 | 30057 ft | 464 kts | 76° |
| 2026-05-04 13:15 | 37.25638 | -6.70919 | 30060 ft | 466 kts | 77° |
| 2026-05-04 13:15 | 37.27079 | -6.62966 | 30057 ft | 468 kts | 77° |
| 2026-05-04 13:16 | 37.28770 | -6.55094 | 30033 ft | 467 kts | 62° |
| 2026-05-04 13:16 | 37.30465 | -6.51663 | 30059 ft | 460 kts | 47° |
| 2026-05-04 13:16 | 37.32700 | -6.48851 | 30043 ft | 451 kts | 31° |
| 2026-05-04 13:17 | 37.37957 | -6.44716 | 30047 ft | 445 kts | 25° |
| 2026-05-04 13:17 | 37.43273 | -6.40698 | 30036 ft | 446 kts | 25° |
| 2026-05-04 13:18 | 37.48568 | -6.36611 | 30035 ft | 447 kts | 26° |
| 2026-05-04 13:18 | 37.53854 | -6.32478 | 30031 ft | 447 kts | 26° |
| 2026-05-04 13:19 | 37.59133 | -6.28332 | 30044 ft | 447 kts | 26° |
| 2026-05-04 13:19 | 37.64406 | -6.24185 | 30025 ft | 446 kts | 26° |
| 2026-05-04 13:20 | 37.69669 | -6.20041 | 30030 ft | 445 kts | 26° |
| 2026-05-04 13:20 | 37.74922 | -6.15900 | 30023 ft | 445 kts | 26° |
| 2026-05-04 13:21 | 37.80159 | -6.11763 | 30037 ft | 444 kts | 26° |
| 2026-05-04 13:21 | 37.85388 | -6.07626 | 30022 ft | 443 kts | 26° |
| 2026-05-04 13:22 | 37.90611 | -6.03487 | 30028 ft | 442 kts | 26° |
| 2026-05-04 13:22 | 37.95626 | -5.98918 | 30021 ft | 450 kts | 39° |
| 2026-05-04 13:23 | 37.99663 | -5.92868 | 30031 ft | 454 kts | 49° |
| 2026-05-04 13:23 | 38.03533 | -5.86524 | 30026 ft | 455 kts | 49° |
| 2026-05-04 13:24 | 38.07427 | -5.80193 | 30027 ft | 455 kts | 49° |
| 2026-05-04 13:24 | 38.11348 | -5.73886 | 30031 ft | 455 kts | 48° |
| 2026-05-04 13:25 | 38.17238 | -5.64432 | 30028 ft | 454 kts | 48° |
| 2026-05-04 13:25 | 38.21156 | -5.58128 | 30011 ft | 454 kts | 48° |
| 2026-05-04 13:26 | 38.25069 | -5.51818 | 30023 ft | 454 kts | 49° |
| 2026-05-04 13:26 | 38.28975 | -5.45505 | 30007 ft | 454 kts | 49° |
| 2026-05-04 13:27 | 38.32877 | -5.39187 | 30010 ft | 454 kts | 49° |
| 2026-05-04 13:27 | 38.36773 | -5.32866 | 30011 ft | 454 kts | 49° |
| 2026-05-04 13:28 | 38.40666 | -5.26536 | 30007 ft | 454 kts | 49° |
| 2026-05-04 13:28 | 38.44564 | -5.20187 | 30012 ft | 455 kts | 49° |
| 2026-05-04 13:29 | 38.48464 | -5.13823 | 30007 ft | 456 kts | 49° |
| 2026-05-04 13:29 | 38.52527 | -5.07641 | 30005 ft | 453 kts | 41° |
| 2026-05-04 13:30 | 38.57028 | -5.02021 | 30003 ft | 453 kts | 39° |
| 2026-05-04 13:30 | 38.61566 | -4.96459 | 29998 ft | 452 kts | 40° |
| 2026-05-04 13:31 | 38.66067 | -4.90851 | 29989 ft | 451 kts | 40° |
| 2026-05-04 13:31 | 38.70539 | -4.85219 | 29998 ft | 451 kts | 40° |
| 2026-05-04 13:32 | 38.74978 | -4.79611 | 29999 ft | 452 kts | 40° |
| 2026-05-04 13:32 | 38.79456 | -4.73946 | 29997 ft | 453 kts | 40° |
| 2026-05-04 13:33 | 38.83942 | -4.68261 | 29994 ft | 454 kts | 40° |
| 2026-05-04 13:33 | 38.88441 | -4.62548 | 29993 ft | 456 kts | 40° |
| 2026-05-04 13:34 | 38.92948 | -4.56816 | 29992 ft | 456 kts | 40° |
| 2026-05-04 13:34 | 38.97456 | -4.51071 | 29993 ft | 456 kts | 40° |
| 2026-05-04 13:35 | 39.04203 | -4.42446 | 29986 ft | 456 kts | 40° |
| 2026-05-04 13:36 | 39.08696 | -4.36689 | 29987 ft | 456 kts | 40° |
| 2026-05-04 13:36 | 39.13197 | -4.30909 | 29974 ft | 457 kts | 41° |
| 2026-05-04 13:37 | 39.17688 | -4.25132 | 29980 ft | 457 kts | 41° |
| 2026-05-04 13:37 | 39.22182 | -4.19339 | 29954 ft | 457 kts | 41° |
| 2026-05-04 13:38 | 39.26678 | -4.13535 | 29973 ft | 457 kts | 41° |
| 2026-05-04 13:38 | 39.31143 | -4.07757 | 29971 ft | 458 kts | 41° |
| 2026-05-04 13:39 | 39.35632 | -4.01938 | 29953 ft | 457 kts | 41° |
| 2026-05-04 13:39 | 39.40123 | -3.96104 | 29961 ft | 458 kts | 41° |
| 2026-05-04 13:40 | 39.44611 | -3.90263 | 29953 ft | 458 kts | 41° |
| 2026-05-04 13:40 | 39.49096 | -3.84414 | 29951 ft | 457 kts | 41° |
| 2026-05-04 13:41 | 39.53570 | -3.78569 | 29955 ft | 457 kts | 41° |
| 2026-05-04 13:41 | 39.58039 | -3.72722 | 29949 ft | 457 kts | 41° |
| 2026-05-04 13:42 | 39.64746 | -3.63951 | 29939 ft | 456 kts | 41° |
| 2026-05-04 13:42 | 39.69213 | -3.58093 | 29944 ft | 456 kts | 41° |
| 2026-05-04 13:43 | 39.73669 | -3.52237 | 29948 ft | 456 kts | 41° |
| 2026-05-04 13:43 | 39.78165 | -3.46436 | 29938 ft | 454 kts | 37° |
| 2026-05-04 13:44 | 39.83272 | -3.41763 | 29953 ft | 447 kts | 27° |
| 2026-05-04 13:44 | 39.88509 | -3.37385 | 29950 ft | 448 kts | 27° |
| 2026-05-04 13:45 | 39.93732 | -3.32958 | 29958 ft | 448 kts | 28° |
| 2026-05-04 13:45 | 39.98938 | -3.28478 | 29955 ft | 448 kts | 28° |
| 2026-05-04 13:46 | 40.04132 | -3.23982 | 29954 ft | 448 kts | 28° |
| 2026-05-04 13:46 | 40.09326 | -3.19480 | 29961 ft | 448 kts | 28° |
| 2026-05-04 13:47 | 40.14505 | -3.14984 | 29962 ft | 447 kts | 29° |
| 2026-05-04 13:47 | 40.19648 | -3.10512 | 29959 ft | 446 kts | 29° |
| 2026-05-04 13:48 | 40.24812 | -3.06014 | 29970 ft | 446 kts | 29° |
| 2026-05-04 13:48 | 40.29979 | -3.01510 | 29955 ft | 446 kts | 29° |
| 2026-05-04 13:49 | 40.35148 | -2.97000 | 29960 ft | 447 kts | 29° |
| 2026-05-04 13:49 | 40.40319 | -2.92480 | 29961 ft | 447 kts | 29° |
| 2026-05-04 13:50 | 40.45489 | -2.87950 | 29961 ft | 447 kts | 29° |
| 2026-05-04 13:50 | 40.50657 | -2.83415 | 29961 ft | 447 kts | 30° |
| 2026-05-04 13:51 | 40.55830 | -2.78865 | 29961 ft | 448 kts | 30° |
| 2026-05-04 13:51 | 40.61002 | -2.74307 | 29954 ft | 447 kts | 30° |
| 2026-05-04 13:52 | 40.68724 | -2.67485 | 29962 ft | 444 kts | 30° |
| 2026-05-04 13:53 | 40.73851 | -2.62947 | 29954 ft | 443 kts | 30° |
| 2026-05-04 13:53 | 40.78970 | -2.58407 | 29962 ft | 443 kts | 30° |
| 2026-05-04 13:54 | 40.86642 | -2.51586 | 29957 ft | 443 kts | 31° |
| 2026-05-04 13:55 | 40.94303 | -2.44754 | 29955 ft | 443 kts | 31° |
| 2026-05-04 13:55 | 41.01966 | -2.37900 | 29954 ft | 443 kts | 32° |
| 2026-05-04 13:56 | 41.06890 | -2.32955 | 29951 ft | 445 kts | 37° |
| 2026-05-04 13:57 | 41.13271 | -2.26056 | 29949 ft | 445 kts | 37° |
| 2026-05-04 13:58 | 41.22905 | -2.15727 | 29945 ft | 445 kts | 37° |
| 2026-05-04 13:58 | 41.30155 | -2.07988 | 29946 ft | 446 kts | 38° |
| 2026-05-04 13:59 | 41.34992 | -2.02813 | 29945 ft | 446 kts | 38° |
| 2026-05-04 14:00 | 41.42247 | -1.95029 | 29936 ft | 446 kts | 38° |
| 2026-05-04 14:00 | 41.49490 | -1.87233 | 29927 ft | 446 kts | 38° |
| 2026-05-04 14:01 | 41.54327 | -1.82016 | 29934 ft | 448 kts | 39° |
| 2026-05-04 14:02 | 41.61620 | -1.74128 | 29937 ft | 451 kts | 39° |
| 2026-05-04 14:02 | 41.66494 | -1.68843 | 29920 ft | 451 kts | 39° |
| 2026-05-04 14:03 | 41.71358 | -1.63559 | 29923 ft | 450 kts | 39° |
| 2026-05-04 14:03 | 41.76202 | -1.58286 | 29923 ft | 448 kts | 39° |
| 2026-05-04 14:04 | 41.83421 | -1.50407 | 29924 ft | 445 kts | 39° |
| 2026-05-04 14:04 | 41.88175 | -1.45206 | 29926 ft | 443 kts | 39° |
| 2026-05-04 14:05 | 41.95312 | -1.37378 | 29934 ft | 441 kts | 40° |
| 2026-05-04 14:06 | 42.00058 | -1.32159 | 29980 ft | 442 kts | 40° |
| 2026-05-04 14:06 | 42.04838 | -1.26892 | 29919 ft | 442 kts | 40° |
| 2026-05-04 14:07 | 42.09584 | -1.21654 | 29937 ft | 445 kts | 40° |
| 2026-05-04 14:07 | 42.14456 | -1.16257 | 30103 ft | 462 kts | 40° |
| 2026-05-04 14:08 | 42.19506 | -1.10647 | 30233 ft | 479 kts | 40° |
| 2026-05-04 14:08 | 42.24716 | -1.04846 | 30439 ft | 492 kts | 40° |
| 2026-05-04 14:08 | 42.27364 | -1.01894 | 30680 ft | 494 kts | 40° |
| 2026-05-04 14:09 | 42.32659 | -0.95980 | 31401 ft | 493 kts | 40° |
| 2026-05-04 14:09 | 42.35306 | -0.93017 | 31696 ft | 495 kts | 40° |
| 2026-05-04 14:10 | 42.40621 | -0.87062 | 32289 ft | 497 kts | 40° |
| 2026-05-04 14:10 | 42.43201 | -0.83949 | 32600 ft | 496 kts | 47° |
| 2026-05-04 14:10 | 42.45440 | -0.80407 | 32912 ft | 495 kts | 54° |
| 2026-05-04 14:10 | 42.47532 | -0.76712 | 33226 ft | 495 kts | 55° |
| 2026-05-04 14:11 | 42.49599 | -0.72975 | 33534 ft | 496 kts | 56° |
| 2026-05-04 14:11 | 42.53751 | -0.65488 | 34086 ft | 497 kts | 54° |
| 2026-05-04 14:11 | 42.55847 | -0.61757 | 34346 ft | 497 kts | 54° |
| 2026-05-04 14:12 | 42.57946 | -0.58043 | 34681 ft | 495 kts | 54° |
| 2026-05-04 14:12 | 42.60042 | -0.54342 | 34961 ft | 495 kts | 54° |
| 2026-05-04 14:12 | 42.64239 | -0.46926 | 35484 ft | 495 kts | 54° |
| 2026-05-04 14:13 | 42.66334 | -0.43216 | 35772 ft | 494 kts | 54° |
| 2026-05-04 14:13 | 42.68419 | -0.39515 | 36054 ft | 493 kts | 54° |
| 2026-05-04 14:13 | 42.70506 | -0.35805 | 36292 ft | 493 kts | 54° |
| 2026-05-04 14:13 | 42.72586 | -0.32102 | 36513 ft | 493 kts | 54° |
| 2026-05-04 14:14 | 42.74635 | -0.28449 | 36810 ft | 491 kts | 54° |
| 2026-05-04 14:14 | 42.78774 | -0.21061 | 37305 ft | 491 kts | 54° |
| 2026-05-04 14:14 | 42.80861 | -0.17365 | 37473 ft | 492 kts | 52° |
| 2026-05-04 14:15 | 42.85170 | -0.10156 | 37963 ft | 492 kts | 51° |
| 2026-05-04 14:15 | 42.89561 | -0.02948 | 37954 ft | 493 kts | 51° |
| 2026-05-04 14:16 | 42.96061 | 0.07842 | 37952 ft | 488 kts | 52° |
| 2026-05-04 14:17 | 43.02474 | 0.18600 | 37961 ft | 485 kts | 52° |
| 2026-05-04 14:18 | 43.08839 | 0.29318 | 37951 ft | 483 kts | 52° |
| 2026-05-04 14:19 | 43.17343 | 0.43695 | 37949 ft | 488 kts | 52° |
| 2026-05-04 14:19 | 43.21617 | 0.50945 | 37948 ft | 489 kts | 52° |
| 2026-05-04 14:20 | 43.25897 | 0.58225 | 37928 ft | 491 kts | 52° |
| 2026-05-04 14:20 | 43.30183 | 0.65533 | 37931 ft | 492 kts | 52° |
| 2026-05-04 14:21 | 43.36625 | 0.76552 | 37926 ft | 495 kts | 52° |
| 2026-05-04 14:21 | 43.40939 | 0.83954 | 37912 ft | 496 kts | 52° |
| 2026-05-04 14:22 | 43.45216 | 0.91310 | 37916 ft | 495 kts | 52° |
| 2026-05-04 14:22 | 43.49513 | 0.98721 | 37901 ft | 495 kts | 52° |
| 2026-05-04 14:23 | 43.55932 | 1.09825 | 37903 ft | 493 kts | 52° |
| 2026-05-04 14:24 | 43.60188 | 1.17213 | 37914 ft | 491 kts | 52° |
| 2026-05-04 14:24 | 43.64441 | 1.24615 | 37900 ft | 493 kts | 52° |
| 2026-05-04 14:25 | 43.68691 | 1.32038 | 37924 ft | 492 kts | 53° |
| 2026-05-04 14:25 | 43.74809 | 1.43452 | 37898 ft | 494 kts | 55° |
| 2026-05-04 14:26 | 43.78848 | 1.51112 | 37908 ft | 492 kts | 55° |
| 2026-05-04 14:26 | 43.82891 | 1.58737 | 37905 ft | 490 kts | 55° |
| 2026-05-04 14:27 | 43.86892 | 1.66280 | 37902 ft | 488 kts | 54° |
| 2026-05-04 14:27 | 43.90901 | 1.73863 | 37894 ft | 487 kts | 55° |
| 2026-05-04 14:28 | 43.94901 | 1.81446 | 37898 ft | 487 kts | 55° |
| 2026-05-04 14:28 | 43.98818 | 1.89101 | 37901 ft | 486 kts | 56° |
| 2026-05-04 14:29 | 44.06475 | 2.04606 | 37901 ft | 487 kts | 57° |
| 2026-05-04 14:30 | 44.10319 | 2.12380 | 37920 ft | 488 kts | 57° |
| 2026-05-04 14:31 | 44.16098 | 2.24075 | 37925 ft | 489 kts | 57° |
| 2026-05-04 14:32 | 44.23807 | 2.39751 | 37941 ft | 492 kts | 57° |
| 2026-05-04 14:32 | 44.27682 | 2.47664 | 37936 ft | 495 kts | 57° |
| 2026-05-04 14:33 | 44.31560 | 2.55605 | 37938 ft | 495 kts | 57° |
| 2026-05-04 14:33 | 44.35431 | 2.63554 | 37927 ft | 494 kts | 57° |
| 2026-05-04 14:34 | 44.39285 | 2.71488 | 37932 ft | 492 kts | 57° |
| 2026-05-04 14:34 | 44.43096 | 2.79357 | 37925 ft | 491 kts | 57° |
| 2026-05-04 14:35 | 44.46901 | 2.87235 | 37931 ft | 489 kts | 57° |
| 2026-05-04 14:35 | 44.50618 | 2.94950 | 37944 ft | 487 kts | 57° |
| 2026-05-04 14:36 | 44.54453 | 3.02934 | 37956 ft | 485 kts | 57° |
| 2026-05-04 14:36 | 44.58191 | 3.10736 | 37945 ft | 485 kts | 57° |
| 2026-05-04 14:37 | 44.61881 | 3.18652 | 37963 ft | 484 kts | 60° |
| 2026-05-04 14:37 | 44.65206 | 3.26884 | 37974 ft | 485 kts | 63° |
| 2026-05-04 14:38 | 44.68470 | 3.35194 | 37964 ft | 487 kts | 62° |
| 2026-05-04 14:38 | 44.71783 | 3.43503 | 37976 ft | 488 kts | 62° |
| 2026-05-04 14:39 | 44.75120 | 3.51834 | 37975 ft | 490 kts | 62° |
| 2026-05-04 14:39 | 44.78457 | 3.60207 | 37969 ft | 491 kts | 62° |
| 2026-05-04 14:40 | 44.83445 | 3.72829 | 37984 ft | 493 kts | 62° |
| 2026-05-04 14:40 | 44.86772 | 3.81285 | 37986 ft | 494 kts | 62° |
| 2026-05-04 14:41 | 44.90101 | 3.89763 | 37982 ft | 494 kts | 62° |
| 2026-05-04 14:42 | 44.96734 | 4.06733 | 37989 ft | 493 kts | 62° |
| 2026-05-04 14:42 | 45.00027 | 4.15199 | 37996 ft | 491 kts | 62° |
| 2026-05-04 14:43 | 45.03305 | 4.23648 | 37997 ft | 490 kts | 62° |
| 2026-05-04 14:43 | 45.06570 | 4.32083 | 37996 ft | 488 kts | 62° |
| 2026-05-04 14:44 | 45.09820 | 4.40499 | 38001 ft | 487 kts | 62° |
| 2026-05-04 14:44 | 45.13057 | 4.48908 | 38004 ft | 486 kts | 62° |
| 2026-05-04 14:45 | 45.16277 | 4.57302 | 38033 ft | 485 kts | 62° |
| 2026-05-04 14:45 | 45.19500 | 4.65725 | 38012 ft | 488 kts | 62° |
| 2026-05-04 14:46 | 45.22185 | 4.72770 | 38005 ft | 489 kts | 62° |
| 2026-05-04 14:46 | 45.25407 | 4.81253 | 38002 ft | 487 kts | 62° |
| 2026-05-04 14:47 | 45.28612 | 4.89713 | 38016 ft | 486 kts | 62° |
| 2026-05-04 14:47 | 45.31809 | 4.98180 | 38024 ft | 486 kts | 63° |
| 2026-05-04 14:48 | 45.34993 | 5.06640 | 38023 ft | 485 kts | 63° |
| 2026-05-04 14:48 | 45.38168 | 5.15100 | 38023 ft | 485 kts | 63° |
| 2026-05-04 14:49 | 45.41335 | 5.23567 | 38023 ft | 485 kts | 63° |
| 2026-05-04 14:49 | 45.44499 | 5.32051 | 38018 ft | 485 kts | 63° |
| 2026-05-04 14:50 | 45.47685 | 5.40533 | 38013 ft | 486 kts | 59° |
| 2026-05-04 14:50 | 45.51895 | 5.47995 | 38023 ft | 483 kts | 40° |
| 2026-05-04 14:51 | 45.56948 | 5.54314 | 38026 ft | 483 kts | 39° |
| 2026-05-04 14:51 | 45.62013 | 5.60633 | 38042 ft | 484 kts | 39° |
| 2026-05-04 14:52 | 45.67046 | 5.67065 | 38050 ft | 486 kts | 40° |
| 2026-05-04 14:52 | 45.72072 | 5.73531 | 38044 ft | 486 kts | 40° |
| 2026-05-04 14:53 | 45.77107 | 5.80002 | 38067 ft | 486 kts | 40° |
| 2026-05-04 14:53 | 45.82146 | 5.86480 | 38064 ft | 487 kts | 40° |
| 2026-05-04 14:54 | 45.87179 | 5.92972 | 38049 ft | 486 kts | 40° |
| 2026-05-04 14:54 | 45.92200 | 5.99466 | 38062 ft | 486 kts | 40° |
| 2026-05-04 14:55 | 45.97179 | 6.05925 | 38046 ft | 485 kts | 40° |
| 2026-05-04 14:55 | 46.02178 | 6.12428 | 38042 ft | 484 kts | 40° |
| 2026-05-04 14:56 | 46.07153 | 6.18913 | 38057 ft | 482 kts | 40° |
| 2026-05-04 14:56 | 46.12061 | 6.25495 | 38059 ft | 481 kts | 43° |
| 2026-05-04 14:57 | 46.16801 | 6.32285 | 38078 ft | 480 kts | 44° |
| 2026-05-04 14:57 | 46.21516 | 6.39080 | 38057 ft | 478 kts | 43° |
| 2026-05-04 14:58 | 46.26239 | 6.45844 | 38070 ft | 477 kts | 43° |
| 2026-05-04 14:58 | 46.30955 | 6.52584 | 38039 ft | 476 kts | 43° |
| 2026-05-04 14:59 | 46.35654 | 6.59318 | 38049 ft | 475 kts | 43° |
| 2026-05-04 15:00 | 46.42690 | 6.69435 | 38046 ft | 475 kts | 44° |
| 2026-05-04 15:00 | 46.47382 | 6.76205 | 38029 ft | 475 kts | 44° |
| 2026-05-04 15:01 | 46.54407 | 6.86374 | 38050 ft | 476 kts | 44° |
| 2026-05-04 15:01 | 46.58830 | 6.93531 | 38064 ft | 477 kts | 50° |
| 2026-05-04 15:02 | 46.62963 | 7.01099 | 38042 ft | 478 kts | 51° |
| 2026-05-04 15:02 | 46.67071 | 7.08644 | 38057 ft | 478 kts | 51° |
| 2026-05-04 15:03 | 46.71228 | 7.16188 | 38050 ft | 477 kts | 51° |
| 2026-05-04 15:03 | 46.75389 | 7.23719 | 38035 ft | 477 kts | 51° |
| 2026-05-04 15:04 | 46.79534 | 7.31249 | 38019 ft | 475 kts | 51° |
| 2026-05-04 15:04 | 46.83667 | 7.38778 | 38021 ft | 474 kts | 51° |
| 2026-05-04 15:05 | 46.85654 | 7.42407 | 38029 ft | 474 kts | 51° |
| 2026-05-04 15:05 | 46.89758 | 7.49931 | 38018 ft | 473 kts | 51° |
| 2026-05-04 15:06 | 46.93845 | 7.57453 | 38027 ft | 472 kts | 51° |
| 2026-05-04 15:07 | 46.99959 | 7.68742 | 38013 ft | 471 kts | 51° |
| 2026-05-04 15:07 | 47.04018 | 7.76262 | 38015 ft | 470 kts | 51° |
| 2026-05-04 15:08 | 47.08076 | 7.83801 | 37994 ft | 471 kts | 52° |
| 2026-05-04 15:08 | 47.12127 | 7.91346 | 37973 ft | 470 kts | 52° |
| 2026-05-04 15:09 | 47.15907 | 7.99137 | 37982 ft | 467 kts | 58° |
| 2026-05-04 15:09 | 47.19276 | 8.07278 | 37988 ft | 465 kts | 59° |
| 2026-05-04 15:10 | 47.24347 | 8.19423 | 37992 ft | 465 kts | 59° |
| 2026-05-04 15:11 | 47.29676 | 8.31414 | 37972 ft | 469 kts | 49° |
| 2026-05-04 15:11 | 47.34542 | 8.37748 | 37975 ft | 468 kts | 33° |
| 2026-05-04 15:12 | 47.40024 | 8.42967 | 37975 ft | 469 kts | 31° |
| 2026-05-04 15:12 | 47.45524 | 8.48157 | 37960 ft | 469 kts | 32° |
| 2026-05-04 15:13 | 47.50994 | 8.53416 | 37965 ft | 469 kts | 32° |
| 2026-05-04 15:13 | 47.56416 | 8.58691 | 37962 ft | 465 kts | 32° |
| 2026-05-04 15:14 | 47.61813 | 8.63964 | 37965 ft | 465 kts | 32° |
| 2026-05-04 15:14 | 47.67230 | 8.69266 | 37972 ft | 468 kts | 32° |
| 2026-05-04 15:15 | 47.72631 | 8.74564 | 37965 ft | 468 kts | 32° |
| 2026-05-04 15:15 | 47.78326 | 8.79148 | 37967 ft | 464 kts | 23° |
| 2026-05-04 15:16 | 47.87148 | 8.85093 | 37963 ft | 464 kts | 23° |
| 2026-05-04 15:17 | 47.95959 | 8.91171 | 37952 ft | 466 kts | 23° |
| 2026-05-04 15:17 | 48.04725 | 8.97336 | 37952 ft | 463 kts | 24° |
| 2026-05-04 15:18 | 48.10567 | 9.01460 | 37959 ft | 464 kts | 24° |
| 2026-05-04 15:19 | 48.19351 | 9.07673 | 37964 ft | 467 kts | 24° |
| 2026-05-04 15:19 | 48.28149 | 9.13920 | 37944 ft | 463 kts | 24° |
| 2026-05-04 15:20 | 48.33954 | 9.18056 | 37951 ft | 461 kts | 24° |
| 2026-05-04 15:20 | 48.39770 | 9.22208 | 37702 ft | 468 kts | 24° |
| 2026-05-04 15:21 | 48.42718 | 9.24315 | 37313 ft | 467 kts | 24° |
| 2026-05-04 15:21 | 48.45633 | 9.26404 | 36883 ft | 462 kts | 24° |
| 2026-05-04 15:21 | 48.51379 | 9.30531 | 36097 ft | 453 kts | 24° |
| 2026-05-04 15:22 | 48.54214 | 9.32570 | 35715 ft | 449 kts | 24° |
| 2026-05-04 15:22 | 48.57021 | 9.34591 | 35316 ft | 446 kts | 24° |
| 2026-05-04 15:22 | 48.62576 | 9.38598 | 34554 ft | 439 kts | 24° |
| 2026-05-04 15:23 | 48.65328 | 9.40586 | 34146 ft | 437 kts | 24° |
| 2026-05-04 15:23 | 48.68059 | 9.42562 | 33740 ft | 434 kts | 24° |
| 2026-05-04 15:23 | 48.70743 | 9.44625 | 33299 ft | 432 kts | 31° |
| 2026-05-04 15:23 | 48.73185 | 9.47248 | 32906 ft | 429 kts | 40° |
| 2026-05-04 15:24 | 48.77173 | 9.53831 | 32196 ft | 421 kts | 52° |
| 2026-05-04 15:24 | 48.80792 | 9.60741 | 31455 ft | 416 kts | 52° |
| 2026-05-04 15:25 | 48.82597 | 9.64153 | 31096 ft | 414 kts | 51° |
| 2026-05-04 15:25 | 48.84406 | 9.67538 | 30752 ft | 412 kts | 51° |
| 2026-05-04 15:25 | 48.86194 | 9.70872 | 30386 ft | 412 kts | 51° |
| 2026-05-04 15:26 | 48.89810 | 9.77615 | 29574 ft | 410 kts | 51° |
| 2026-05-04 15:26 | 48.91601 | 9.80964 | 29200 ft | 406 kts | 51° |
| 2026-05-04 15:26 | 48.95136 | 9.87587 | 28439 ft | 400 kts | 51° |
| 2026-05-04 15:27 | 48.96879 | 9.90861 | 28047 ft | 397 kts | 51° |
| 2026-05-04 15:27 | 49.00332 | 9.97356 | 27308 ft | 392 kts | 51° |
| 2026-05-04 15:28 | 49.03741 | 10.03785 | 26567 ft | 388 kts | 51° |
| 2026-05-04 15:28 | 49.05430 | 10.06977 | 26209 ft | 386 kts | 51° |
| 2026-05-04 15:28 | 49.08782 | 10.13321 | 25499 ft | 383 kts | 51° |
| 2026-05-04 15:29 | 49.10451 | 10.16483 | 25126 ft | 382 kts | 51° |
| 2026-05-04 15:30 | 49.17338 | 10.28672 | 23672 ft | 377 kts | 44° |
| 2026-05-04 15:30 | 49.22884 | 10.37169 | 22471 ft | 374 kts | 45° |
| 2026-05-04 15:31 | 49.26524 | 10.42770 | 21735 ft | 368 kts | 45° |
| 2026-05-04 15:31 | 49.28336 | 10.45522 | 21393 ft | 365 kts | 45° |
| 2026-05-04 15:32 | 49.33475 | 10.53892 | 20323 ft | 358 kts | 63° |
| 2026-05-04 15:32 | 49.34298 | 10.61152 | 19649 ft | 345 kts | 101° |
| 2026-05-04 15:33 | 49.33542 | 10.68297 | 18948 ft | 332 kts | 103° |
| 2026-05-04 15:34 | 49.32509 | 10.78630 | 17913 ft | 325 kts | 102° |
| 2026-05-04 15:34 | 49.32180 | 10.82052 | 17567 ft | 324 kts | 102° |
| 2026-05-04 15:34 | 49.31525 | 10.88842 | 16883 ft | 321 kts | 102° |
| 2026-05-04 15:35 | 49.30981 | 10.94437 | 16351 ft | 318 kts | 102° |
| 2026-05-04 15:35 | 49.30654 | 10.97781 | 16017 ft | 317 kts | 102° |
| 2026-05-04 15:35 | 49.30327 | 11.01118 | 15690 ft | 316 kts | 102° |
| 2026-05-04 15:36 | 49.30364 | 11.07787 | 15011 ft | 323 kts | 70° |
| 2026-05-04 15:36 | 49.31585 | 11.10662 | 14690 ft | 325 kts | 44° |
| 2026-05-04 15:36 | 49.33487 | 11.12488 | 14407 ft | 323 kts | 18° |
| 2026-05-04 15:37 | 49.35687 | 11.12927 | 14019 ft | 321 kts | 348° |
| 2026-05-04 15:37 | 49.37686 | 11.11640 | 13700 ft | 309 kts | 317° |
| 2026-05-04 15:37 | 49.39074 | 11.09210 | 13365 ft | 300 kts | 297° |
| 2026-05-04 15:37 | 49.39919 | 11.06346 | 13011 ft | 292 kts | 280° |
| 2026-05-04 15:38 | 49.40274 | 11.03317 | 12708 ft | 287 kts | 274° |
| 2026-05-04 15:38 | 49.40548 | 11.00292 | 12379 ft | 285 kts | 274° |
| 2026-05-04 15:38 | 49.40822 | 10.97284 | 12083 ft | 284 kts | 274° |
| 2026-05-04 15:38 | 49.41101 | 10.94298 | 11778 ft | 282 kts | 274° |
| 2026-05-04 15:39 | 49.41383 | 10.91324 | 11486 ft | 281 kts | 274° |
| 2026-05-04 15:39 | 49.41669 | 10.88362 | 11169 ft | 280 kts | 274° |
| 2026-05-04 15:39 | 49.42236 | 10.82476 | 10595 ft | 279 kts | 274° |
| 2026-05-04 15:40 | 49.42519 | 10.79526 | 10293 ft | 280 kts | 274° |
| 2026-05-04 15:40 | 49.42803 | 10.76570 | 10103 ft | 278 kts | 274° |
| 2026-05-04 15:40 | 49.43084 | 10.73636 | 9861 ft | 279 kts | 274° |
| 2026-05-04 15:40 | 49.43363 | 10.70689 | 9681 ft | 277 kts | 274° |
| 2026-05-04 15:41 | 49.43640 | 10.67805 | 9599 ft | 270 kts | 275° |
| 2026-05-04 15:41 | 49.43674 | 10.65002 | 9469 ft | 257 kts | 252° |
| 2026-05-04 15:41 | 49.42879 | 10.62657 | 9462 ft | 245 kts | 223° |
| 2026-05-04 15:41 | 49.41507 | 10.61181 | 9497 ft | 241 kts | 207° |
| 2026-05-04 15:42 | 49.39972 | 10.60021 | 9628 ft | 254 kts | 199° |
| 2026-05-04 15:42 | 49.38202 | 10.59870 | 9984 ft | 262 kts | 169° |
| 2026-05-04 15:42 | 49.36600 | 10.61239 | 9980 ft | 271 kts | 139° |
| 2026-05-04 15:42 | 49.35538 | 10.63633 | 9988 ft | 276 kts | 115° |
| 2026-05-04 15:43 | 49.35198 | 10.66545 | 9976 ft | 284 kts | 91° |
| 2026-05-04 15:43 | 49.35503 | 10.69560 | 9999 ft | 288 kts | 85° |
| 2026-05-04 15:43 | 49.35774 | 10.72636 | 9997 ft | 294 kts | 86° |
| 2026-05-04 15:43 | 49.36021 | 10.75747 | 9979 ft | 294 kts | 87° |
| 2026-05-04 15:44 | 49.36267 | 10.78842 | 9968 ft | 290 kts | 87° |
| 2026-05-04 15:44 | 49.36511 | 10.81870 | 9964 ft | 290 kts | 86° |
| 2026-05-04 15:44 | 49.36765 | 10.84952 | 9967 ft | 292 kts | 86° |
| 2026-05-04 15:44 | 49.37020 | 10.88038 | 9969 ft | 292 kts | 86° |
| 2026-05-04 15:45 | 49.37278 | 10.91130 | 9959 ft | 291 kts | 86° |
| 2026-05-04 15:45 | 49.37535 | 10.94203 | 9974 ft | 291 kts | 86° |
| 2026-05-04 15:45 | 49.37793 | 10.97289 | 9967 ft | 291 kts | 86° |
| 2026-05-04 15:45 | 49.38051 | 11.00369 | 9970 ft | 292 kts | 86° |
| 2026-05-04 15:46 | 49.38308 | 11.03462 | 9974 ft | 292 kts | 86° |
| 2026-05-04 15:46 | 49.38566 | 11.06556 | 9961 ft | 292 kts | 86° |
| 2026-05-04 15:46 | 49.38821 | 11.09649 | 9964 ft | 292 kts | 86° |
| 2026-05-04 15:46 | 49.39076 | 11.12738 | 9974 ft | 292 kts | 87° |
| 2026-05-04 15:47 | 49.39087 | 11.15817 | 9972 ft | 286 kts | 101° |
| 2026-05-04 15:47 | 49.38776 | 11.18826 | 9983 ft | 286 kts | 104° |
| 2026-05-04 15:47 | 49.38424 | 11.21841 | 9971 ft | 288 kts | 104° |
| 2026-05-04 15:47 | 49.38090 | 11.24873 | 9961 ft | 288 kts | 103° |
| 2026-05-04 15:48 | 49.37774 | 11.27904 | 9955 ft | 287 kts | 103° |
| 2026-05-04 15:48 | 49.37466 | 11.30926 | 9961 ft | 286 kts | 103° |
| 2026-05-04 15:48 | 49.36859 | 11.36903 | 9449 ft | 278 kts | 102° |
| 2026-05-04 15:49 | 49.36568 | 11.39792 | 9153 ft | 272 kts | 102° |
| 2026-05-04 15:49 | 49.36277 | 11.42657 | 8872 ft | 271 kts | 102° |
| 2026-05-04 15:49 | 49.35985 | 11.45512 | 8577 ft | 271 kts | 101° |
| 2026-05-04 15:49 | 49.35693 | 11.48356 | 8283 ft | 269 kts | 101° |
| 2026-05-04 15:50 | 49.35403 | 11.51188 | 8021 ft | 269 kts | 101° |
| 2026-05-04 15:50 | 49.35112 | 11.54019 | 7724 ft | 268 kts | 101° |
| 2026-05-04 15:50 | 49.35066 | 11.56860 | 7435 ft | 270 kts | 78° |
| 2026-05-04 15:50 | 49.35878 | 11.59425 | 7169 ft | 269 kts | 48° |
| 2026-05-04 15:51 | 49.37383 | 11.61070 | 6949 ft | 267 kts | 21° |
| 2026-05-04 15:51 | 49.39182 | 11.61752 | 6689 ft | 266 kts | 9° |
| 2026-05-04 15:51 | 49.41001 | 11.62134 | 6523 ft | 261 kts | 1° |
| 2026-05-04 15:51 | 49.42706 | 11.61445 | 6364 ft | 253 kts | 324° |
| 2026-05-04 15:52 | 49.43819 | 11.59481 | 6271 ft | 239 kts | 298° |
| 2026-05-04 15:52 | 49.44476 | 11.57248 | 6152 ft | 228 kts | 291° |
| 2026-05-04 15:52 | 49.44978 | 11.54966 | 6043 ft | 219 kts | 288° |
| 2026-05-04 15:52 | 49.45408 | 11.52736 | 5977 ft | 214 kts | 284° |
| 2026-05-04 15:53 | 49.45719 | 11.50578 | 5771 ft | 205 kts | 282° |
| 2026-05-04 15:53 | 49.45957 | 11.48440 | 5558 ft | 200 kts | 280° |
| 2026-05-04 15:53 | 49.46163 | 11.46368 | 5370 ft | 191 kts | 279° |
| 2026-05-04 15:53 | 49.46349 | 11.44384 | 5195 ft | 184 kts | 279° |
| 2026-05-04 15:54 | 49.46523 | 11.42551 | 5191 ft | 166 kts | 279° |
| 2026-05-04 15:54 | 49.46685 | 11.40844 | 5045 ft | 157 kts | 279° |
| 2026-05-04 15:54 | 49.46843 | 11.39200 | 4817 ft | 154 kts | 279° |
| 2026-05-04 15:54 | 49.46993 | 11.37594 | 4631 ft | 149 kts | 280° |
| 2026-05-04 15:55 | 49.47146 | 11.36007 | 4427 ft | 152 kts | 279° |
| 2026-05-04 15:55 | 49.47293 | 11.34419 | 4218 ft | 149 kts | 280° |
| 2026-05-04 15:55 | 49.47444 | 11.32877 | 4026 ft | 144 kts | 280° |
| 2026-05-04 15:55 | 49.47591 | 11.31343 | 3826 ft | 147 kts | 280° |
| 2026-05-04 15:56 | 49.47737 | 11.29822 | 3650 ft | 142 kts | 281° |
| 2026-05-04 15:56 | 49.47897 | 11.28308 | 3431 ft | 145 kts | 281° |
| 2026-05-04 15:56 | 49.48032 | 11.26786 | 3254 ft | 143 kts | 281° |
| 2026-05-04 15:56 | 49.48175 | 11.25281 | 3094 ft | 143 kts | 281° |
| 2026-05-04 15:57 | 49.48322 | 11.23743 | 2891 ft | 144 kts | 281° |
| 2026-05-04 15:57 | 49.48466 | 11.22240 | 2686 ft | 139 kts | 281° |
| 2026-05-04 15:57 | 49.48609 | 11.20787 | 2503 ft | 137 kts | 280° |
| 2026-05-04 15:57 | 49.48742 | 11.19317 | 2309 ft | 138 kts | 280° |
| 2026-05-04 15:58 | 49.48887 | 11.17872 | 2141 ft | 137 kts | 281° |
| 2026-05-04 15:58 | 49.49033 | 11.16401 | 1961 ft | 139 kts | 281° |
| 2026-05-04 15:58 | 49.49177 | 11.14908 | 1772 ft | 141 kts | 280° |
| 2026-05-04 15:58 | 49.49319 | 11.13399 | 1595 ft | 146 kts | 280° |
| 2026-05-04 15:59 | 49.49460 | 11.11854 | 1414 ft | 147 kts | 282° |
| 2026-05-04 15:59 | 49.49619 | 11.10321 | 1204 ft | 144 kts | 281° |
| 2026-05-04 15:59 | 49.49766 | 11.08829 | 1055 ft | 133 kts | 282° |
| 2026-05-04 15:59 | 49.49886 | 11.07638 | 1045 ft | 94 kts | 278° |
| 2026-05-04 16:00 | 49.49970 | 11.06798 | 1032 ft | 39 kts | 278° |
| 2026-05-04 16:00 | 49.49978 | 11.06524 | 1032 ft | 16 kts | 244° |
| 2026-05-04 16:00 | 49.49932 | 11.06479 | 1031 ft | 7 kts | 187° |
| 2026-05-04 16:00 | 49.49876 | 11.06500 | 1030 ft | 11 kts | 155° |
| 2026-05-04 16:01 | 49.49850 | 11.06518 | 1030 ft | 0 kts | 156° |
| 2026-05-04 16:02 | 49.49845 | 11.06522 | 1029 ft | 6 kts | 156° |
| 2026-05-04 16:02 | 49.49787 | 11.06688 | 1026 ft | 10 kts | 96° |
| 2026-05-04 16:03 | 49.49777 | 11.06790 | 1029 ft | 10 kts | 100° |
| 2026-05-04 16:03 | 49.49766 | 11.06902 | 1031 ft | 13 kts | 98° |
| 2026-05-04 16:03 | 49.49753 | 11.07039 | 1033 ft | 13 kts | 98° |
| 2026-05-04 16:03 | 49.49740 | 11.07170 | 1035 ft | 11 kts | 100° |
| 2026-05-04 16:04 | 49.49683 | 11.07230 | 1035 ft | 11 kts | 180° |
| 2026-05-04 16:04 | 49.49633 | 11.07297 | 1034 ft | 11 kts | 102° |
| 2026-05-04 16:04 | 49.49621 | 11.07413 | 1035 ft | 8 kts | 99° |
| 2026-05-04 16:05 | 49.49614 | 11.07490 | 1035 ft | 7 kts | 103° |
| 2026-05-04 16:05 | 49.49594 | 11.07527 | 1035 ft | 1 kts | 160° |
| 2026-05-04 16:05 | 49.49549 | 11.07519 | 1032 ft | 2 kts | 189° |
| 2026-05-04 16:06 | 49.49546 | 11.07518 | 1032 ft | 0 kts | 189° |